USCGC Eagle — NRCB — position and weather

sailwx.info

Track history (hours):
 
Tides and Currents Weather Stations Pressure Air Temp Water Temp Dewpoint Dewpoint Depression Visibility Wind Speed Wind Dir Waves Ship Positions

USCGC Eagle (United States)

Training ship of US Coast Guard Academy, and only square-rigger in active service in the US armed services. Ex German ship Horst Wessel.

Ship's website: http://www.cga.edu/eagle/

Last reported at 2020-Jun-27 02:25 UTC. Time now 2020-Jul-02 16:19 UTC.
Position N 40°56' W 071°53'.

Type: Sailing vessel. MMSI: 303990000.

Date/timePositionNaut miles runAvg speedWind from/ knotsBaromVisibWave heightAir tempDewpointWater temp
2020-Jun-27 02:25N 40°56' W 071°53'5 6.7
2020-Jun-27 01:44N 40°60' W 071°48'11 4.2
2020-Jun-26 23:00N 41°07' W 071°60'0 0.0
2020-Jun-26 20:58N 41°07' W 071°60'0 0.4
2020-Jun-26 20:30N 41°07' W 071°60'10 6.5
2020-Jun-26 19:01N 41°16' W 072°04'1 0.6
2020-Jun-26 17:30N 41°16' W 072°04'24 6.5
2020-Jun-26 13:46N 40°57' W 071°44'9 5.9
2020-Jun-26 12:11N 40°47' W 071°46'  
2020-Jun-23 05:24N 40°02' W 071°45'28 7.2
2020-Jun-23 01:29N 40°30' W 071°44'41 7.6
2020-Jun-22 20:10N 41°10' W 071°53'310.7
2020-Jun-22 19:54N 41°11' W 071°56'16 4.7
2020-Jun-22 16:30N 41°15' W 072°16'9 4.7
2020-Jun-22 14:30N 41°19' W 072°05'2 4.0
2020-Jun-22 13:58N 41°21' W 072°05'0 0.2
2020-Jun-22 12:58N 41°21' W 072°05'4 3.9
2020-Jun-22 11:58N 41°17' W 072°04'0 0.0
2020-Jun-22 08:59N 41°17' W 072°04'0 0.0
2020-Jun-22 05:28N 41°17' W 072°04'0 0.0
2020-Jun-22 03:29N 41°17' W 072°04'0 0.0
2020-Jun-22 02:59N 41°17' W 072°04'0 0.0
2020-Jun-22 01:29N 41°17' W 072°04'0 0.0
2020-Jun-22 00:59N 41°17' W 072°04'  
2020-Jun-19 20:01N 41°16' W 072°04'4 1.5
2020-Jun-19 16:58N 41°21' W 072°05'0 0.0
2020-Jun-19 16:28N 41°21' W 072°05'0 0.0
2020-Jun-19 14:58N 41°21' W 072°05'  
Track history (hours):
 
Tides and Currents Weather Stations Pressure Air Temp Water Temp Dewpoint Dewpoint Depression Visibility Wind Speed Wind Dir Waves Ship Positions

USCGC Eagle (United States)

Training ship of US Coast Guard Academy, and only square-rigger in active service in the US armed services. Ex German ship Horst Wessel.

Ship's website: http://www.cga.edu/eagle/

Last reported at 2020-Jun-27 02:25 UTC. Time now 2020-Jul-02 16:19 UTC.
Position N 40°56' W 071°53'.

Type: Sailing vessel. MMSI: 303990000.

Date/timePositionNaut miles runAvg speedWind from/ knotsBaromVisibWave heightAir tempDewpointWater temp
2020-Jun-27 02:25N 40°56' W 071°53'5 6.7
2020-Jun-27 01:44N 40°60' W 071°48'11 4.2
2020-Jun-26 23:00N 41°07' W 071°60'0 0.0
2020-Jun-26 20:58N 41°07' W 071°60'0 0.4
2020-Jun-26 20:30N 41°07' W 071°60'10 6.5
2020-Jun-26 19:01N 41°16' W 072°04'1 0.6
2020-Jun-26 17:30N 41°16' W 072°04'24 6.5
2020-Jun-26 13:46N 40°57' W 071°44'9 5.9
2020-Jun-26 12:11N 40°47' W 071°46'  
2020-Jun-23 05:24N 40°02' W 071°45'28 7.2
2020-Jun-23 01:29N 40°30' W 071°44'41 7.6
2020-Jun-22 20:10N 41°10' W 071°53'310.7
2020-Jun-22 19:54N 41°11' W 071°56'16 4.7
2020-Jun-22 16:30N 41°15' W 072°16'9 4.7
2020-Jun-22 14:30N 41°19' W 072°05'2 4.0
2020-Jun-22 13:58N 41°21' W 072°05'0 0.2
2020-Jun-22 12:58N 41°21' W 072°05'4 3.9
2020-Jun-22 11:58N 41°17' W 072°04'0 0.0
2020-Jun-22 08:59N 41°17' W 072°04'0 0.0
2020-Jun-22 05:28N 41°17' W 072°04'0 0.0
2020-Jun-22 03:29N 41°17' W 072°04'0 0.0
2020-Jun-22 02:59N 41°17' W 072°04'0 0.0
2020-Jun-22 01:29N 41°17' W 072°04'0 0.0
2020-Jun-22 00:59N 41°17' W 072°04'  
2020-Jun-19 20:01N 41°16' W 072°04'4 1.5
2020-Jun-19 16:58N 41°21' W 072°05'0 0.0
2020-Jun-19 16:28N 41°21' W 072°05'0 0.0
2020-Jun-19 14:58N 41°21' W 072°05'  

Dump ship's entire track history